Flight Track Log - Related Links

Times and Time Zones

All times are in EDT time to prevent confusion due to time zone crossing. See the N93XP flight status page for this flight to view local times or setup timezone preferences in your user account.

Time Position Orientation Groundspeed Altitude Reporting Facility
EDT Latitude Longitude Course Direction KTS MPH feet Rate Location/Type
Fri 04:31:33 AM 41.6167 -87.4000 312° West 2 2 600  Level Chicago TRACON
Fri 04:32:27 AM 41.6322 -87.4417 297° West 193 222 1,400 1,357 Climbing Chicago Center
Fri 04:33:28 AM 41.6889 -87.4822 332° Northwest 236 272 3,200 1,835 Climbing Chicago Center
Fri 04:34:28 AM 41.7525 -87.5261 333° Northwest 251 289 5,100 1,835 Climbing Chicago Center
Fri 04:35:29 AM 41.8197 -87.5753 331° Northwest 268 308 6,900 1,785 Climbing Chicago Center
Fri 04:36:00 AM 42.0469 -87.7883 330° Northwest  Level FlightAware Approximate
Fri 04:36:29 AM 41.8922 -87.6178 336° Northwest 285 328 8,700  Level Chicago Center
Fri 04:37:00 AM 42.1160 -87.8657 312° West  Level FlightAware Approximate
Fri 04:37:30 AM 41.9669 -87.6572 339° North 291 335 10,400  Level Chicago Center
Fri 04:38:30 AM 42.0433 -87.6986 338° Northwest 297 342 11,800 1,250 Climbing Chicago Center
Fri 04:39:30 AM 42.1239 -87.7403 339° North 310 357 12,900 942 Climbing Chicago Center
Fri 04:40:31 AM 42.2086 -87.7878 337° Northwest 330 380 13,700 793 Climbing Chicago Center
Fri 04:41:31 AM 42.2978 -87.8353 338° Northwest 345 397 14,500 843 Climbing Chicago Center
Fri 04:42:32 AM 42.3933 -87.8869 338° Northwest 359 413 15,400 843 Climbing Chicago Center
Fri 04:43:32 AM 42.4864 -87.9369 338° Northwest 360 414 16,200 893 Climbing Chicago Center
Fri 04:44:33 AM 42.5972 -88.0000 337° Northwest 368 423 17,200 793 Climbing Chicago Center
Fri 04:45:33 AM 42.6953 -88.0525 339° North 378 435 17,800 694 Climbing Chicago Center
Fri 04:46:34 AM 42.7931 -88.1061 338° Northwest 379 436 18,600 843 Climbing Chicago Center
Fri 04:47:34 AM 42.8917 -88.1600 338° Northwest 382 440 19,500 843 Climbing Chicago Center
Fri 04:48:35 AM 42.9908 -88.2142 338° Northwest 383 441 20,300 793 Climbing Chicago Center
Fri 04:49:35 AM 43.0903 -88.2689 338° Northwest 384 442 21,100 793 Climbing Chicago Center
Fri 04:50:36 AM 43.1808 -88.3486 327° Northwest 384 442 21,900 793 Climbing Chicago Center
Fri 04:51:36 AM 43.2683 -88.4347 324° Northwest 385 443 22,700 793 Climbing Chicago Center
Fri 04:52:37 AM 43.3569 -88.5217 325° Northwest 386 444 23,500 694 Climbing Chicago Center
Fri 04:53:37 AM 43.4333 -88.5986 324° Northwest 391 450 24,100 645 Climbing Chicago Center
Fri 04:54:38 AM 43.5242 -88.6881 324° Northwest 393 452 24,800 694 Climbing Chicago Center
Fri 04:55:38 AM 43.6131 -88.7761 324° Northwest 392 451 25,500 645 Climbing Chicago Center
Fri 04:56:39 AM 43.7033 -88.8669 324° Northwest 397 457 26,100 645 Climbing Chicago Center
Fri 04:57:39 AM 43.7928 -88.9567 324° Northwest 396 456 26,800 694 Climbing Chicago Center
Fri 04:58:40 AM 43.8975 -89.0622 324° Northwest 398 458 27,500 643 Climbing Chicago Center
Fri 04:59:31 AM 43.9700 -89.1378 323° Northwest 392 451 28,000 589 Climbing Minneapolis Center
Fri 05:00:32 AM 44.0567 -89.2250 324° Northwest 385 443 28,600 595 Climbing Minneapolis Center
Fri 05:01:32 AM 44.1403 -89.3114 323° Northwest 377 434 29,200 645 Climbing Minneapolis Center
Fri 05:02:33 AM 44.2236 -89.3953 324° Northwest 370 426 29,900 694 Climbing Minneapolis Center
Fri 05:03:33 AM 44.3050 -89.4836 322° Northwest 369 425 30,600 595 Climbing Minneapolis Center
Fri 05:04:34 AM 44.3872 -89.5661 324° Northwest 366 421 31,100 595 Climbing Minneapolis Center
Fri 05:05:34 AM 44.4692 -89.6489 324° Northwest 364 419 31,800 446 Climbing Minneapolis Center
Fri 05:06:35 AM 44.5514 -89.7336 324° Northwest 366 421 32,000 98 Climbing Minneapolis Center
Fri 05:07:36 AM 44.6350 -89.8219 323° Northwest 375 432 32,000  Level Minneapolis Center
Fri 05:08:36 AM 44.7219 -89.9117 324° Northwest 385 443 32,000 -248 Level Minneapolis Center
Fri 05:09:37 AM 44.8061 -90.0014 323° Northwest 382 440 31,500 -694 Descending Minneapolis Center
Fri 05:10:37 AM 44.8894 -90.0886 323° Northwest 375 432 30,600 -942 Descending Minneapolis Center
Fri 05:11:38 AM 44.9731 -90.1775 323° Northwest 375 432 29,600 -992 Descending Minneapolis Center
Fri 05:12:38 AM 45.0572 -90.2678 323° Northwest 378 435 28,600 -942 Descending Minneapolis Center
Fri 05:13:39 AM 45.1433 -90.3589 323° Northwest 384 442 27,700 -942 Descending Minneapolis Center
Fri 05:14:39 AM 45.2294 -90.4522 323° Northwest 387 445 26,700 -1,000 Descending Minneapolis Center
Fri 05:15:39 AM 45.3181 -90.5456 323° Northwest 393 452 25,700 -942 Descending Minneapolis Center
Fri 05:16:40 AM 45.4058 -90.6397 323° Northwest 394 453 24,800 -942 Descending Minneapolis Center
Fri 05:17:40 AM 45.4936 -90.7356 323° Northwest 396 456 23,800 -1,041 Descending Minneapolis Center
Fri 05:18:41 AM 45.5811 -90.8319 322° Northwest 397 457 22,700 -1,190 Descending Minneapolis Center
Fri 05:19:41 AM 45.6692 -90.9283 323° Northwest 399 459 21,400 -1,289 Descending Minneapolis Center
Fri 05:20:42 AM 45.7592 -91.0247 323° Northwest 402 463 20,100 -1,240 Descending Minneapolis Center
Fri 05:21:42 AM 45.8464 -91.1231 322° Northwest 400 460 18,900 -1,190 Descending Minneapolis Center
Fri 05:22:43 AM 45.9328 -91.2192 322° Northwest 396 456 17,700 -1,240 Descending Minneapolis Center
Fri 05:23:43 AM 46.0178 -91.3125 323° Northwest 390 449 16,400 -1,240 Descending Minneapolis Center
Fri 05:24:44 AM 46.0997 -91.4036 322° Northwest 379 436 15,200 -1,240 Descending Minneapolis Center
Fri 05:25:44 AM 46.1806 -91.4947 322° Northwest 373 429 13,900 -1,339 Descending Minneapolis Center
Fri 05:26:45 AM 46.2586 -91.5819 322° Northwest 359 413 12,500 -1,785 Descending Minneapolis Center
Fri 05:27:45 AM 46.3403 -91.6714 323° Northwest 331 381 10,300 -2,083 Descending Minneapolis Center
Fri 05:28:46 AM 46.4069 -91.7467 322° Northwest 309 356 8,300 -1,983 Descending Minneapolis Center
Fri 05:29:46 AM 46.4678 -91.8186 321° Northwest 292 336 6,300 -1,983 Descending Minneapolis Center
Fri 05:30:47 AM 46.5250 -91.8850 321° Northwest 278 320 4,300 -1,140 Descending Minneapolis Center
Fri 05:31:47 AM 46.5808 -91.9489 322° Northwest 268 308 4,000 -149 Descending Minneapolis Center
Fri 05:32:48 AM 46.6489 -91.9728 346° North 261 300 4,000  Level Minneapolis Center
Fri 05:33:48 AM 46.7192 -91.9869 352° North 259 298 4,000  Level Minneapolis Center
Fri 05:34:49 AM 46.7903 -92.0058 350° North 259 298 4,000 -149 Level Minneapolis Center
Fri 05:35:49 AM 46.8406 -92.0447 332° Northwest 237 273 3,700 -793 Descending Minneapolis Center
Fri 05:36:50 AM 46.8400 -92.1028 269° West 174 200 2,400 -942 Descending Minneapolis Center
Fri 05:37:50 AM 46.8406 -92.1522 271° West 140 161 1,800 -600 Descending Minneapolis Center
Fri 05:39:00 AM 46.8333 -92.1833 326° Northwest  Level FlightAware Approximate
Fri 05:46:00 AM 46.8421 -92.1936 326° Northwest  Level Estimated
Fri 05:47:00 AM 46.8421 -92.1936 326° Northwest  Level Estimated

Login

Don't have an account? Register now (free) for customized features, flight alerts, and more!